EGSH - Norwich Weather Centre
Distance from station: E 5mi, 14km
Updated: 02/22/2018 11:50pm
Mostly Cloudy
Mostly Cloudy
 Wind from E
Wind: E 8 mph , 13 km/h
Temperature: 36°F , 2°C
Wind Chill: 30°F , -1°C
Dew Point: 30°F , -1°C
Humidity: 81%
Barometer: 30.24 inHg , 1024 hPa
Clouds: Mostly Cloudy
Visibility: 6 miles , 10 km
Cloud details: Mostly Cloudy 2500 ft
2018/02/23 07:50 EGSH 230750Z 08007KT 9999 BKN025 02/M01 Q1024 NOSIG